sensor_id;sensor_type;location;lat;lon;timestamp;P1;durP1;ratioP1;P2;durP2;ratioP2
147;SDS011;142;50.652;12.216;2022-11-20T00:01:30;0.00;;;0.00;;
147;SDS011;142;50.652;12.216;2022-11-20T00:03:58;0.00;;;0.00;;
147;SDS011;142;50.652;12.216;2022-11-20T00:06:26;0.20;;;0.10;;
147;SDS011;142;50.652;12.216;2022-11-20T00:08:54;0.05;;;0.03;;
147;SDS011;142;50.652;12.216;2022-11-20T00:11:23;0.00;;;0.00;;
147;SDS011;142;50.652;12.216;2022-11-20T00:13:52;0.00;;;0.00;;
147;SDS011;142;50.652;12.216;2022-11-20T00:16:22;0.00;;;0.00;;
147;SDS011;142;50.652;12.216;2022-11-20T00:18:51;0.00;;;0.00;;
147;SDS011;142;50.652;12.216;2022-11-20T00:21:19;0.00;;;0.00;;
147;SDS011;142;50.652;12.216;2022-11-20T00:23:47;0.00;;;0.00;;
147;SDS011;142;50.652;12.216;2022-11-20T00:26:15;0.00;;;0.00;;
147;SDS011;142;50.652;12.216;2022-11-20T00:28:49;0.00;;;0.00;;
147;SDS011;142;50.652;12.216;2022-11-20T00:31:18;0.00;;;0.00;;
147;SDS011;142;50.652;12.216;2022-11-20T00:33:46;0.00;;;0.00;;
147;SDS011;142;50.652;12.216;2022-11-20T00:36:15;0.00;;;0.00;;
147;SDS011;142;50.652;12.216;2022-11-20T00:38:44;0.00;;;0.00;;
147;SDS011;142;50.652;12.216;2022-11-20T00:41:11;0.00;;;0.00;;
147;SDS011;142;50.652;12.216;2022-11-20T00:43:40;0.00;;;0.00;;
147;SDS011;142;50.652;12.216;2022-11-20T00:46:08;0.00;;;0.00;;
147;SDS011;142;50.652;12.216;2022-11-20T00:48:38;0.00;;;0.00;;
147;SDS011;142;50.652;12.216;2022-11-20T00:51:07;0.00;;;0.00;;
147;SDS011;142;50.652;12.216;2022-11-20T00:53:34;0.00;;;0.00;;
147;SDS011;142;50.652;12.216;2022-11-20T00:56:02;0.00;;;0.00;;
147;SDS011;142;50.652;12.216;2022-11-20T00:58:32;0.00;;;0.00;;
147;SDS011;142;50.652;12.216;2022-11-20T01:01:00;0.00;;;0.00;;
147;SDS011;142;50.652;12.216;2022-11-20T01:03:30;0.00;;;0.00;;
147;SDS011;142;50.652;12.216;2022-11-20T01:05:59;0.00;;;0.00;;
147;SDS011;142;50.652;12.216;2022-11-20T01:08:30;0.00;;;0.00;;
147;SDS011;142;50.652;12.216;2022-11-20T01:10:59;0.00;;;0.00;;
147;SDS011;142;50.652;12.216;2022-11-20T01:13:26;0.00;;;0.00;;
147;SDS011;142;50.652;12.216;2022-11-20T01:16:06;0.00;;;0.00;;
147;SDS011;142;50.652;12.216;2022-11-20T01:18:35;0.00;;;0.00;;
147;SDS011;142;50.652;12.216;2022-11-20T01:21:03;0.00;;;0.00;;
147;SDS011;142;50.652;12.216;2022-11-20T01:23:34;0.00;;;0.00;;
147;SDS011;142;50.652;12.216;2022-11-20T01:26:02;0.00;;;0.00;;
147;SDS011;142;50.652;12.216;2022-11-20T01:28:31;0.00;;;0.00;;
147;SDS011;142;50.652;12.216;2022-11-20T01:30:59;0.00;;;0.00;;
147;SDS011;142;50.652;12.216;2022-11-20T01:33:29;0.00;;;0.00;;
147;SDS011;142;50.652;12.216;2022-11-20T01:36:03;0.20;;;0.10;;
147;SDS011;142;50.652;12.216;2022-11-20T01:38:31;0.00;;;0.00;;
147;SDS011;142;50.652;12.216;2022-11-20T01:40:59;0.00;;;0.00;;
147;SDS011;142;50.652;12.216;2022-11-20T01:43:26;0.20;;;0.10;;
147;SDS011;142;50.652;12.216;2022-11-20T01:46:08;0.00;;;0.00;;
147;SDS011;142;50.652;12.216;2022-11-20T01:48:42;0.00;;;0.00;;
147;SDS011;142;50.652;12.216;2022-11-20T01:51:17;0.00;;;0.00;;
147;SDS011;142;50.652;12.216;2022-11-20T01:53:49;0.00;;;0.00;;
147;SDS011;142;50.652;12.216;2022-11-20T01:56:19;0.00;;;0.00;;
147;SDS011;142;50.652;12.216;2022-11-20T01:58:47;0.00;;;0.00;;
147;SDS011;142;50.652;12.216;2022-11-20T02:01:17;0.00;;;0.00;;
147;SDS011;142;50.652;12.216;2022-11-20T02:03:45;0.00;;;0.00;;
147;SDS011;142;50.652;12.216;2022-11-20T02:06:16;0.00;;;0.00;;
147;SDS011;142;50.652;12.216;2022-11-20T02:08:49;0.00;;;0.00;;
147;SDS011;142;50.652;12.216;2022-11-20T02:11:18;0.00;;;0.00;;
147;SDS011;142;50.652;12.216;2022-11-20T02:13:46;0.00;;;0.00;;
147;SDS011;142;50.652;12.216;2022-11-20T02:16:15;0.00;;;0.00;;
147;SDS011;142;50.652;12.216;2022-11-20T02:18:45;0.00;;;0.00;;
147;SDS011;142;50.652;12.216;2022-11-20T02:21:19;0.00;;;0.00;;
147;SDS011;142;50.652;12.216;2022-11-20T02:23:59;0.00;;;0.00;;
147;SDS011;142;50.652;12.216;2022-11-20T02:26:28;0.00;;;0.00;;
147;SDS011;142;50.652;12.216;2022-11-20T02:28:56;0.00;;;0.00;;
147;SDS011;142;50.652;12.216;2022-11-20T02:31:25;0.00;;;0.00;;
147;SDS011;142;50.652;12.216;2022-11-20T02:33:55;0.00;;;0.00;;
147;SDS011;142;50.652;12.216;2022-11-20T02:36:23;0.00;;;0.00;;
147;SDS011;142;50.652;12.216;2022-11-20T02:38:52;0.05;;;0.03;;
147;SDS011;142;50.652;12.216;2022-11-20T02:41:21;0.00;;;0.00;;
147;SDS011;142;50.652;12.216;2022-11-20T02:43:57;0.00;;;0.00;;
147;SDS011;142;50.652;12.216;2022-11-20T02:46:24;0.00;;;0.00;;
147;SDS011;142;50.652;12.216;2022-11-20T02:48:51;0.00;;;0.00;;
147;SDS011;142;50.652;12.216;2022-11-20T02:51:18;0.00;;;0.00;;
147;SDS011;142;50.652;12.216;2022-11-20T02:53:45;0.00;;;0.00;;
147;SDS011;142;50.652;12.216;2022-11-20T02:56:12;0.00;;;0.00;;
147;SDS011;142;50.652;12.216;2022-11-20T02:58:40;0.00;;;0.00;;
147;SDS011;142;50.652;12.216;2022-11-20T03:01:07;0.00;;;0.00;;
147;SDS011;142;50.652;12.216;2022-11-20T03:03:34;0.00;;;0.00;;
147;SDS011;142;50.652;12.216;2022-11-20T03:06:02;0.00;;;0.00;;
147;SDS011;142;50.652;12.216;2022-11-20T03:08:29;0.20;;;0.10;;
147;SDS011;142;50.652;12.216;2022-11-20T03:10:56;0.00;;;0.00;;
147;SDS011;142;50.652;12.216;2022-11-20T03:13:24;0.00;;;0.00;;
147;SDS011;142;50.652;12.216;2022-11-20T03:15:53;0.00;;;0.00;;
147;SDS011;142;50.652;12.216;2022-11-20T03:18:20;0.00;;;0.00;;
147;SDS011;142;50.652;12.216;2022-11-20T03:20:47;0.00;;;0.00;;
147;SDS011;142;50.652;12.216;2022-11-20T03:23:14;0.15;;;0.08;;
147;SDS011;142;50.652;12.216;2022-11-20T03:25:41;0.00;;;0.00;;
147;SDS011;142;50.652;12.216;2022-11-20T03:28:08;0.00;;;0.00;;
147;SDS011;142;50.652;12.216;2022-11-20T03:30:35;0.00;;;0.00;;
147;SDS011;142;50.652;12.216;2022-11-20T03:33:04;0.00;;;0.00;;
147;SDS011;142;50.652;12.216;2022-11-20T03:35:31;0.20;;;0.10;;
147;SDS011;142;50.652;12.216;2022-11-20T03:37:58;0.00;;;0.00;;
147;SDS011;142;50.652;12.216;2022-11-20T03:40:25;0.00;;;0.00;;
147;SDS011;142;50.652;12.216;2022-11-20T03:42:52;0.00;;;0.00;;
147;SDS011;142;50.652;12.216;2022-11-20T03:45:19;0.00;;;0.00;;
147;SDS011;142;50.652;12.216;2022-11-20T03:47:46;0.00;;;0.00;;
147;SDS011;142;50.652;12.216;2022-11-20T03:50:14;0.00;;;0.00;;
147;SDS011;142;50.652;12.216;2022-11-20T03:52:41;0.00;;;0.00;;
147;SDS011;142;50.652;12.216;2022-11-20T03:55:09;0.00;;;0.00;;
147;SDS011;142;50.652;12.216;2022-11-20T03:57:36;0.00;;;0.00;;
147;SDS011;142;50.652;12.216;2022-11-20T04:00:03;0.00;;;0.00;;
147;SDS011;142;50.652;12.216;2022-11-20T04:02:31;0.00;;;0.00;;
147;SDS011;142;50.652;12.216;2022-11-20T04:04:58;0.00;;;0.00;;
147;SDS011;142;50.652;12.216;2022-11-20T04:07:26;0.20;;;0.10;;
147;SDS011;142;50.652;12.216;2022-11-20T04:09:53;0.00;;;0.00;;
147;SDS011;142;50.652;12.216;2022-11-20T04:12:20;0.00;;;0.00;;
147;SDS011;142;50.652;12.216;2022-11-20T04:14:47;0.00;;;0.00;;
147;SDS011;142;50.652;12.216;2022-11-20T04:17:14;0.00;;;0.00;;
147;SDS011;142;50.652;12.216;2022-11-20T04:19:41;0.15;;;0.08;;
147;SDS011;142;50.652;12.216;2022-11-20T04:22:08;0.00;;;0.00;;
147;SDS011;142;50.652;12.216;2022-11-20T04:24:38;0.00;;;0.00;;
147;SDS011;142;50.652;12.216;2022-11-20T04:27:05;0.00;;;0.00;;
147;SDS011;142;50.652;12.216;2022-11-20T04:29:31;0.00;;;0.00;;
147;SDS011;142;50.652;12.216;2022-11-20T04:31:58;0.00;;;0.00;;
147;SDS011;142;50.652;12.216;2022-11-20T04:34:25;0.00;;;0.00;;
147;SDS011;142;50.652;12.216;2022-11-20T04:36:52;0.00;;;0.00;;
147;SDS011;142;50.652;12.216;2022-11-20T04:39:19;0.00;;;0.00;;
147;SDS011;142;50.652;12.216;2022-11-20T04:41:48;0.00;;;0.00;;
147;SDS011;142;50.652;12.216;2022-11-20T04:44:35;0.00;;;0.00;;
147;SDS011;142;50.652;12.216;2022-11-20T04:47:02;0.00;;;0.00;;
147;SDS011;142;50.652;12.216;2022-11-20T04:49:29;0.00;;;0.00;;
147;SDS011;142;50.652;12.216;2022-11-20T04:51:56;0.00;;;0.00;;
147;SDS011;142;50.652;12.216;2022-11-20T04:54:24;0.00;;;0.00;;
147;SDS011;142;50.652;12.216;2022-11-20T04:56:52;0.00;;;0.00;;
147;SDS011;142;50.652;12.216;2022-11-20T04:59:19;0.00;;;0.00;;
147;SDS011;142;50.652;12.216;2022-11-20T05:01:46;0.00;;;0.00;;
147;SDS011;142;50.652;12.216;2022-11-20T05:04:13;0.00;;;0.00;;
147;SDS011;142;50.652;12.216;2022-11-20T05:06:40;0.00;;;0.00;;
147;SDS011;142;50.652;12.216;2022-11-20T05:09:07;0.00;;;0.00;;
147;SDS011;142;50.652;12.216;2022-11-20T05:11:34;0.00;;;0.00;;
147;SDS011;142;50.652;12.216;2022-11-20T05:14:03;0.00;;;0.00;;
147;SDS011;142;50.652;12.216;2022-11-20T05:16:30;0.00;;;0.00;;
147;SDS011;142;50.652;12.216;2022-11-20T05:18:57;0.00;;;0.00;;
147;SDS011;142;50.652;12.216;2022-11-20T05:21:24;0.00;;;0.00;;
147;SDS011;142;50.652;12.216;2022-11-20T05:23:51;0.00;;;0.00;;
147;SDS011;142;50.652;12.216;2022-11-20T05:26:18;0.10;;;0.05;;
147;SDS011;142;50.652;12.216;2022-11-20T05:28:50;0.00;;;0.00;;
147;SDS011;142;50.652;12.216;2022-11-20T05:31:22;0.00;;;0.00;;
147;SDS011;142;50.652;12.216;2022-11-20T05:33:50;0.00;;;0.00;;
147;SDS011;142;50.652;12.216;2022-11-20T05:36:17;0.00;;;0.00;;
147;SDS011;142;50.652;12.216;2022-11-20T05:38:44;0.00;;;0.00;;
147;SDS011;142;50.652;12.216;2022-11-20T05:41:12;0.00;;;0.00;;
147;SDS011;142;50.652;12.216;2022-11-20T05:43:40;0.00;;;0.00;;
147;SDS011;142;50.652;12.216;2022-11-20T05:46:09;0.20;;;0.10;;
147;SDS011;142;50.652;12.216;2022-11-20T05:48:41;0.00;;;0.00;;
147;SDS011;142;50.652;12.216;2022-11-20T05:51:10;0.00;;;0.00;;
147;SDS011;142;50.652;12.216;2022-11-20T05:53:39;0.00;;;0.00;;
147;SDS011;142;50.652;12.216;2022-11-20T05:56:06;0.00;;;0.00;;
147;SDS011;142;50.652;12.216;2022-11-20T05:58:36;0.00;;;0.00;;
147;SDS011;142;50.652;12.216;2022-11-20T06:01:04;0.00;;;0.00;;
147;SDS011;142;50.652;12.216;2022-11-20T06:03:32;0.00;;;0.00;;
147;SDS011;142;50.652;12.216;2022-11-20T06:06:01;0.00;;;0.00;;
147;SDS011;142;50.652;12.216;2022-11-20T06:08:29;0.00;;;0.00;;
147;SDS011;142;50.652;12.216;2022-11-20T06:10:57;0.00;;;0.00;;
147;SDS011;142;50.652;12.216;2022-11-20T06:13:24;0.00;;;0.00;;
147;SDS011;142;50.652;12.216;2022-11-20T06:15:52;0.20;;;0.10;;
147;SDS011;142;50.652;12.216;2022-11-20T06:18:19;0.00;;;0.00;;
147;SDS011;142;50.652;12.216;2022-11-20T06:20:46;0.00;;;0.00;;
147;SDS011;142;50.652;12.216;2022-11-20T06:23:14;0.00;;;0.00;;
147;SDS011;142;50.652;12.216;2022-11-20T06:25:42;0.00;;;0.00;;
147;SDS011;142;50.652;12.216;2022-11-20T06:28:09;0.15;;;0.08;;
147;SDS011;142;50.652;12.216;2022-11-20T06:30:36;0.00;;;0.00;;
147;SDS011;142;50.652;12.216;2022-11-20T06:33:03;0.00;;;0.00;;
147;SDS011;142;50.652;12.216;2022-11-20T06:35:30;0.00;;;0.00;;
147;SDS011;142;50.652;12.216;2022-11-20T06:37:57;0.00;;;0.00;;
147;SDS011;142;50.652;12.216;2022-11-20T06:40:25;0.00;;;0.00;;
147;SDS011;142;50.652;12.216;2022-11-20T06:42:53;0.00;;;0.00;;
147;SDS011;142;50.652;12.216;2022-11-20T06:45:21;0.00;;;0.00;;
147;SDS011;142;50.652;12.216;2022-11-20T06:47:48;0.00;;;0.00;;
147;SDS011;142;50.652;12.216;2022-11-20T06:50:15;0.20;;;0.10;;
147;SDS011;142;50.652;12.216;2022-11-20T06:52:42;0.05;;;0.03;;
147;SDS011;142;50.652;12.216;2022-11-20T06:55:09;0.00;;;0.00;;
147;SDS011;142;50.652;12.216;2022-11-20T06:57:37;0.00;;;0.00;;
147;SDS011;142;50.652;12.216;2022-11-20T07:00:05;0.20;;;0.10;;
147;SDS011;142;50.652;12.216;2022-11-20T07:02:32;0.20;;;0.10;;
147;SDS011;142;50.652;12.216;2022-11-20T07:04:59;0.20;;;0.10;;
147;SDS011;142;50.652;12.216;2022-11-20T07:07:27;0.20;;;0.10;;
147;SDS011;142;50.652;12.216;2022-11-20T07:09:54;0.00;;;0.00;;
147;SDS011;142;50.652;12.216;2022-11-20T07:12:21;0.00;;;0.00;;
147;SDS011;142;50.652;12.216;2022-11-20T07:14:49;0.20;;;0.10;;
147;SDS011;142;50.652;12.216;2022-11-20T07:17:16;0.00;;;0.00;;
147;SDS011;142;50.652;12.216;2022-11-20T07:19:43;0.00;;;0.00;;
147;SDS011;142;50.652;12.216;2022-11-20T07:22:10;0.00;;;0.00;;
147;SDS011;142;50.652;12.216;2022-11-20T07:24:38;0.20;;;0.10;;
147;SDS011;142;50.652;12.216;2022-11-20T07:27:05;0.10;;;0.05;;
147;SDS011;142;50.652;12.216;2022-11-20T07:29:32;0.00;;;0.00;;
147;SDS011;142;50.652;12.216;2022-11-20T07:32:00;0.00;;;0.00;;
147;SDS011;142;50.652;12.216;2022-11-20T07:34:27;0.20;;;0.10;;
147;SDS011;142;50.652;12.216;2022-11-20T07:36:55;0.20;;;0.10;;
147;SDS011;142;50.652;12.216;2022-11-20T07:39:22;0.00;;;0.00;;
147;SDS011;142;50.652;12.216;2022-11-20T07:41:49;0.00;;;0.00;;
147;SDS011;142;50.652;12.216;2022-11-20T07:44:16;0.00;;;0.00;;
147;SDS011;142;50.652;12.216;2022-11-20T07:46:43;0.00;;;0.00;;
147;SDS011;142;50.652;12.216;2022-11-20T07:49:11;0.20;;;0.10;;
147;SDS011;142;50.652;12.216;2022-11-20T07:51:38;0.20;;;0.10;;
147;SDS011;142;50.652;12.216;2022-11-20T07:54:05;0.00;;;0.00;;
147;SDS011;142;50.652;12.216;2022-11-20T07:56:32;0.00;;;0.00;;
147;SDS011;142;50.652;12.216;2022-11-20T07:58:59;0.20;;;0.10;;
147;SDS011;142;50.652;12.216;2022-11-20T08:01:26;0.20;;;0.10;;
147;SDS011;142;50.652;12.216;2022-11-20T08:03:53;0.20;;;0.10;;
147;SDS011;142;50.652;12.216;2022-11-20T08:06:22;0.00;;;0.00;;
147;SDS011;142;50.652;12.216;2022-11-20T08:08:49;0.00;;;0.00;;
147;SDS011;142;50.652;12.216;2022-11-20T08:11:16;0.00;;;0.00;;
147;SDS011;142;50.652;12.216;2022-11-20T08:14:01;0.00;;;0.00;;
147;SDS011;142;50.652;12.216;2022-11-20T08:16:41;0.20;;;0.10;;
147;SDS011;142;50.652;12.216;2022-11-20T08:19:09;0.00;;;0.00;;
147;SDS011;142;50.652;12.216;2022-11-20T08:21:37;0.00;;;0.00;;
147;SDS011;142;50.652;12.216;2022-11-20T08:24:05;0.00;;;0.00;;
147;SDS011;142;50.652;12.216;2022-11-20T08:26:34;0.20;;;0.10;;
147;SDS011;142;50.652;12.216;2022-11-20T08:29:02;0.20;;;0.10;;
147;SDS011;142;50.652;12.216;2022-11-20T08:31:29;0.15;;;0.08;;
147;SDS011;142;50.652;12.216;2022-11-20T08:33:57;0.30;;;0.20;;
147;SDS011;142;50.652;12.216;2022-11-20T08:36:24;0.20;;;0.10;;
147;SDS011;142;50.652;12.216;2022-11-20T08:38:53;0.20;;;0.10;;
147;SDS011;142;50.652;12.216;2022-11-20T08:41:21;0.07;;;0.03;;
147;SDS011;142;50.652;12.216;2022-11-20T08:43:52;0.20;;;0.10;;
147;SDS011;142;50.652;12.216;2022-11-20T08:46:21;0.20;;;0.10;;
147;SDS011;142;50.652;12.216;2022-11-20T08:48:49;0.20;;;0.10;;
147;SDS011;142;50.652;12.216;2022-11-20T08:51:16;0.20;;;0.10;;
147;SDS011;142;50.652;12.216;2022-11-20T08:53:43;0.20;;;0.10;;
147;SDS011;142;50.652;12.216;2022-11-20T08:56:11;0.20;;;0.10;;
147;SDS011;142;50.652;12.216;2022-11-20T08:58:38;0.00;;;0.00;;
147;SDS011;142;50.652;12.216;2022-11-20T09:01:06;0.20;;;0.10;;
147;SDS011;142;50.652;12.216;2022-11-20T09:03:33;0.20;;;0.10;;
147;SDS011;142;50.652;12.216;2022-11-20T09:06:00;0.00;;;0.00;;
147;SDS011;142;50.652;12.216;2022-11-20T09:08:29;0.20;;;0.10;;
147;SDS011;142;50.652;12.216;2022-11-20T09:10:57;0.23;;;0.13;;
147;SDS011;142;50.652;12.216;2022-11-20T09:13:26;0.20;;;0.10;;
147;SDS011;142;50.652;12.216;2022-11-20T09:15:55;0.20;;;0.10;;
147;SDS011;142;50.652;12.216;2022-11-20T09:18:22;0.20;;;0.10;;
147;SDS011;142;50.652;12.216;2022-11-20T09:20:49;0.00;;;0.00;;
147;SDS011;142;50.652;12.216;2022-11-20T09:23:17;0.20;;;0.10;;
147;SDS011;142;50.652;12.216;2022-11-20T09:25:44;0.20;;;0.10;;
147;SDS011;142;50.652;12.216;2022-11-20T09:28:11;0.20;;;0.10;;
147;SDS011;142;50.652;12.216;2022-11-20T09:30:40;0.20;;;0.10;;
147;SDS011;142;50.652;12.216;2022-11-20T09:33:08;0.20;;;0.10;;
147;SDS011;142;50.652;12.216;2022-11-20T09:35:37;0.20;;;0.10;;
147;SDS011;142;50.652;12.216;2022-11-20T09:38:05;0.20;;;0.10;;
147;SDS011;142;50.652;12.216;2022-11-20T09:40:34;0.20;;;0.10;;
147;SDS011;142;50.652;12.216;2022-11-20T09:43:03;0.20;;;0.10;;
147;SDS011;142;50.652;12.216;2022-11-20T09:45:39;0.13;;;0.07;;
147;SDS011;142;50.652;12.216;2022-11-20T09:48:24;0.20;;;0.10;;
147;SDS011;142;50.652;12.216;2022-11-20T09:51:02;0.20;;;0.10;;
147;SDS011;142;50.652;12.216;2022-11-20T09:53:35;0.20;;;0.10;;
147;SDS011;142;50.652;12.216;2022-11-20T09:56:20;0.20;;;0.10;;
147;SDS011;142;50.652;12.216;2022-11-20T09:58:49;0.00;;;0.00;;
147;SDS011;142;50.652;12.216;2022-11-20T10:01:18;0.30;;;0.20;;
147;SDS011;142;50.652;12.216;2022-11-20T10:03:53;0.20;;;0.10;;
147;SDS011;142;50.652;12.216;2022-11-20T10:06:28;0.20;;;0.10;;
147;SDS011;142;50.652;12.216;2022-11-20T10:08:59;0.30;;;0.20;;
147;SDS011;142;50.652;12.216;2022-11-20T10:11:35;0.50;;;0.40;;
147;SDS011;142;50.652;12.216;2022-11-20T10:14:16;0.20;;;0.10;;
147;SDS011;142;50.652;12.216;2022-11-20T10:16:53;0.20;;;0.10;;
147;SDS011;142;50.652;12.216;2022-11-20T10:19:34;0.20;;;0.10;;
147;SDS011;142;50.652;12.216;2022-11-20T10:22:16;0.20;;;0.10;;
147;SDS011;142;50.652;12.216;2022-11-20T10:24:55;0.30;;;0.20;;
147;SDS011;142;50.652;12.216;2022-11-20T10:27:30;0.20;;;0.10;;
147;SDS011;142;50.652;12.216;2022-11-20T10:30:15;0.30;;;0.20;;
147;SDS011;142;50.652;12.216;2022-11-20T10:32:45;0.20;;;0.10;;
147;SDS011;142;50.652;12.216;2022-11-20T10:35:21;0.20;;;0.10;;
147;SDS011;142;50.652;12.216;2022-11-20T10:37:56;0.30;;;0.20;;
147;SDS011;142;50.652;12.216;2022-11-20T10:40:28;0.20;;;0.10;;
147;SDS011;142;50.652;12.216;2022-11-20T10:43:02;0.27;;;0.17;;
147;SDS011;142;50.652;12.216;2022-11-20T10:45:42;0.20;;;0.10;;
147;SDS011;142;50.652;12.216;2022-11-20T10:48:15;0.20;;;0.10;;
147;SDS011;142;50.652;12.216;2022-11-20T10:50:59;0.00;;;0.00;;
147;SDS011;142;50.652;12.216;2022-11-20T10:53:44;0.30;;;0.20;;
147;SDS011;142;50.652;12.216;2022-11-20T10:56:20;0.20;;;0.10;;
147;SDS011;142;50.652;12.216;2022-11-20T10:59:07;0.20;;;0.10;;
147;SDS011;142;50.652;12.216;2022-11-20T11:01:55;0.20;;;0.10;;
147;SDS011;142;50.652;12.216;2022-11-20T11:04:33;0.20;;;0.10;;
147;SDS011;142;50.652;12.216;2022-11-20T11:07:08;0.20;;;0.10;;
147;SDS011;142;50.652;12.216;2022-11-20T11:09:41;0.20;;;0.10;;
147;SDS011;142;50.652;12.216;2022-11-20T11:12:12;0.20;;;0.10;;
147;SDS011;142;50.652;12.216;2022-11-20T11:14:44;0.20;;;0.10;;
147;SDS011;142;50.652;12.216;2022-11-20T11:17:20;0.30;;;0.20;;
147;SDS011;142;50.652;12.216;2022-11-20T11:20:00;0.20;;;0.10;;
147;SDS011;142;50.652;12.216;2022-11-20T11:22:30;0.30;;;0.20;;
147;SDS011;142;50.652;12.216;2022-11-20T11:24:58;0.20;;;0.10;;
147;SDS011;142;50.652;12.216;2022-11-20T11:27:26;0.20;;;0.10;;
147;SDS011;142;50.652;12.216;2022-11-20T11:30:01;0.30;;;0.20;;
147;SDS011;142;50.652;12.216;2022-11-20T11:32:39;0.20;;;0.10;;
147;SDS011;142;50.652;12.216;2022-11-20T11:35:07;0.20;;;0.10;;
147;SDS011;142;50.652;12.216;2022-11-20T11:37:51;0.20;;;0.10;;
147;SDS011;142;50.652;12.216;2022-11-20T11:40:20;0.20;;;0.10;;
147;SDS011;142;50.652;12.216;2022-11-20T11:42:51;0.20;;;0.10;;
147;SDS011;142;50.652;12.216;2022-11-20T11:45:21;0.30;;;0.20;;
147;SDS011;142;50.652;12.216;2022-11-20T11:47:47;0.20;;;0.10;;
147;SDS011;142;50.652;12.216;2022-11-20T11:50:18;0.20;;;0.10;;
147;SDS011;142;50.652;12.216;2022-11-20T11:52:49;0.20;;;0.10;;
147;SDS011;142;50.652;12.216;2022-11-20T11:55:26;0.30;;;0.20;;
147;SDS011;142;50.652;12.216;2022-11-20T11:57:59;0.20;;;0.10;;
147;SDS011;142;50.652;12.216;2022-11-20T12:00:35;0.20;;;0.10;;
147;SDS011;142;50.652;12.216;2022-11-20T12:03:09;0.20;;;0.10;;
147;SDS011;142;50.652;12.216;2022-11-20T12:05:43;0.20;;;0.10;;
147;SDS011;142;50.652;12.216;2022-11-20T12:08:17;0.40;;;0.30;;
147;SDS011;142;50.652;12.216;2022-11-20T12:10:53;0.20;;;0.10;;
147;SDS011;142;50.652;12.216;2022-11-20T12:13:32;0.20;;;0.10;;
147;SDS011;142;50.652;12.216;2022-11-20T12:16:09;0.23;;;0.13;;
147;SDS011;142;50.652;12.216;2022-11-20T12:18:41;0.20;;;0.10;;
147;SDS011;142;50.652;12.216;2022-11-20T12:21:12;0.30;;;0.20;;
147;SDS011;142;50.652;12.216;2022-11-20T12:26:59;0.20;;;0.10;;
147;SDS011;142;50.652;12.216;2022-11-20T12:29:43;0.00;;;0.00;;
147;SDS011;142;50.652;12.216;2022-11-20T12:32:30;0.20;;;0.10;;
147;SDS011;142;50.652;12.216;2022-11-20T12:35:11;0.20;;;0.10;;
147;SDS011;142;50.652;12.216;2022-11-20T12:37:57;0.00;;;0.00;;
147;SDS011;142;50.652;12.216;2022-11-20T12:40:40;0.20;;;0.10;;
147;SDS011;142;50.652;12.216;2022-11-20T12:43:15;0.20;;;0.10;;
147;SDS011;142;50.652;12.216;2022-11-20T12:49:10;0.20;;;0.10;;
147;SDS011;142;50.652;12.216;2022-11-20T12:51:57;0.20;;;0.10;;
147;SDS011;142;50.652;12.216;2022-11-20T12:54:49;0.20;;;0.10;;
147;SDS011;142;50.652;12.216;2022-11-20T12:57:33;0.20;;;0.10;;
147;SDS011;142;50.652;12.216;2022-11-20T13:00:08;0.20;;;0.10;;
147;SDS011;142;50.652;12.216;2022-11-20T13:05:49;0.20;;;0.10;;
147;SDS011;142;50.652;12.216;2022-11-20T13:08:23;0.27;;;0.17;;
147;SDS011;142;50.652;12.216;2022-11-20T13:10:55;0.00;;;0.00;;
147;SDS011;142;50.652;12.216;2022-11-20T13:13:33;0.20;;;0.10;;
147;SDS011;142;50.652;12.216;2022-11-20T13:16:10;0.20;;;0.10;;
147;SDS011;142;50.652;12.216;2022-11-20T13:18:43;0.20;;;0.10;;
147;SDS011;142;50.652;12.216;2022-11-20T13:21:17;0.20;;;0.10;;
147;SDS011;142;50.652;12.216;2022-11-20T13:23:45;0.20;;;0.10;;
147;SDS011;142;50.652;12.216;2022-11-20T13:26:17;0.20;;;0.10;;
147;SDS011;142;50.652;12.216;2022-11-20T13:28:58;0.20;;;0.10;;
147;SDS011;142;50.652;12.216;2022-11-20T13:31:31;0.20;;;0.10;;
147;SDS011;142;50.652;12.216;2022-11-20T13:34:00;0.30;;;0.20;;
147;SDS011;142;50.652;12.216;2022-11-20T13:36:30;0.20;;;0.10;;
147;SDS011;142;50.652;12.216;2022-11-20T13:38:59;0.20;;;0.10;;
147;SDS011;142;50.652;12.216;2022-11-20T13:41:26;0.20;;;0.10;;
147;SDS011;142;50.652;12.216;2022-11-20T13:43:58;0.23;;;0.13;;
147;SDS011;142;50.652;12.216;2022-11-20T13:46:35;0.30;;;0.20;;
147;SDS011;142;50.652;12.216;2022-11-20T13:49:07;0.20;;;0.10;;
147;SDS011;142;50.652;12.216;2022-11-20T13:51:38;0.23;;;0.13;;
147;SDS011;142;50.652;12.216;2022-11-20T13:57:16;0.20;;;0.10;;
147;SDS011;142;50.652;12.216;2022-11-20T14:00:08;0.20;;;0.10;;
147;SDS011;142;50.652;12.216;2022-11-20T14:02:39;0.20;;;0.10;;
147;SDS011;142;50.652;12.216;2022-11-20T14:05:11;0.20;;;0.10;;
147;SDS011;142;50.652;12.216;2022-11-20T14:07:45;0.30;;;0.20;;
147;SDS011;142;50.652;12.216;2022-11-20T14:10:19;0.20;;;0.10;;
147;SDS011;142;50.652;12.216;2022-11-20T14:12:48;0.20;;;0.10;;
147;SDS011;142;50.652;12.216;2022-11-20T14:15:25;0.20;;;0.10;;
147;SDS011;142;50.652;12.216;2022-11-20T14:17:53;0.20;;;0.10;;
147;SDS011;142;50.652;12.216;2022-11-20T14:20:21;0.30;;;0.20;;
147;SDS011;142;50.652;12.216;2022-11-20T14:22:51;0.30;;;0.20;;
147;SDS011;142;50.652;12.216;2022-11-20T14:25:20;0.20;;;0.10;;
147;SDS011;142;50.652;12.216;2022-11-20T14:27:53;0.20;;;0.10;;
147;SDS011;142;50.652;12.216;2022-11-20T14:30:23;0.00;;;0.00;;
147;SDS011;142;50.652;12.216;2022-11-20T14:32:53;0.20;;;0.10;;
147;SDS011;142;50.652;12.216;2022-11-20T14:35:24;0.00;;;0.00;;
147;SDS011;142;50.652;12.216;2022-11-20T14:37:54;0.20;;;0.10;;
147;SDS011;142;50.652;12.216;2022-11-20T14:40:26;0.27;;;0.17;;
147;SDS011;142;50.652;12.216;2022-11-20T14:42:55;0.20;;;0.10;;
147;SDS011;142;50.652;12.216;2022-11-20T14:45:23;0.20;;;0.10;;
147;SDS011;142;50.652;12.216;2022-11-20T14:47:55;0.20;;;0.10;;
147;SDS011;142;50.652;12.216;2022-11-20T14:50:24;0.20;;;0.10;;
147;SDS011;142;50.652;12.216;2022-11-20T14:52:53;0.27;;;0.17;;
147;SDS011;142;50.652;12.216;2022-11-20T14:55:25;0.20;;;0.10;;
147;SDS011;142;50.652;12.216;2022-11-20T14:57:56;0.20;;;0.10;;
147;SDS011;142;50.652;12.216;2022-11-20T15:00:26;0.30;;;0.20;;
147;SDS011;142;50.652;12.216;2022-11-20T15:02:56;0.20;;;0.10;;
147;SDS011;142;50.652;12.216;2022-11-20T15:05:24;0.20;;;0.10;;
147;SDS011;142;50.652;12.216;2022-11-20T15:08:04;0.30;;;0.20;;
147;SDS011;142;50.652;12.216;2022-11-20T15:10:32;0.27;;;0.17;;
147;SDS011;142;50.652;12.216;2022-11-20T15:13:00;0.20;;;0.10;;
147;SDS011;142;50.652;12.216;2022-11-20T15:15:32;0.30;;;0.20;;
147;SDS011;142;50.652;12.216;2022-11-20T15:18:09;0.20;;;0.10;;
147;SDS011;142;50.652;12.216;2022-11-20T15:20:39;0.20;;;0.10;;
147;SDS011;142;50.652;12.216;2022-11-20T15:23:09;0.30;;;0.20;;
147;SDS011;142;50.652;12.216;2022-11-20T15:25:38;0.20;;;0.10;;
147;SDS011;142;50.652;12.216;2022-11-20T15:28:07;0.30;;;0.20;;
147;SDS011;142;50.652;12.216;2022-11-20T15:30:43;0.00;;;0.00;;
147;SDS011;142;50.652;12.216;2022-11-20T15:33:11;0.20;;;0.10;;
147;SDS011;142;50.652;12.216;2022-11-20T15:35:41;0.20;;;0.10;;
147;SDS011;142;50.652;12.216;2022-11-20T15:38:08;0.20;;;0.10;;
147;SDS011;142;50.652;12.216;2022-11-20T15:40:35;0.20;;;0.10;;
147;SDS011;142;50.652;12.216;2022-11-20T15:43:02;0.30;;;0.20;;
147;SDS011;142;50.652;12.216;2022-11-20T15:45:30;0.20;;;0.10;;
147;SDS011;142;50.652;12.216;2022-11-20T15:48:01;0.20;;;0.10;;
147;SDS011;142;50.652;12.216;2022-11-20T15:50:36;0.30;;;0.20;;
147;SDS011;142;50.652;12.216;2022-11-20T15:53:05;0.00;;;0.00;;
147;SDS011;142;50.652;12.216;2022-11-20T15:55:33;0.30;;;0.20;;
147;SDS011;142;50.652;12.216;2022-11-20T15:58:01;0.20;;;0.10;;
147;SDS011;142;50.652;12.216;2022-11-20T16:00:28;0.20;;;0.10;;
147;SDS011;142;50.652;12.216;2022-11-20T16:02:55;0.20;;;0.10;;